Waynesville, MO (65583)

2:51 PM CDT on September 02, 2014 (GMT -0500)
Northern Heights | Change Station
CLOSE
Current Station
Personal Weather Station
Location: Waynesville, MO
Elevation: 991 ft
Nearby Weather Stations

Elev 991 ft 37.86 °N, 92.21 °W | Updated 8 seconds ago

Scattered Clouds
Scattered Clouds
80.8 °F
Feels Like 84 °F
N
3.1
Wind Variable Wind from NW
Gusts 7.6 mph

Today
High -- | Low -- °F
--% Chance of Precip.
Yesterday
High -- | Low -- °F
Precip. -- in
6:39 AM 7:36 PM
First Quarter, 54% visible
Pressure 30.01 in
Visibility 10.0 miles
Clouds Few 10000 ft
Scattered Clouds 15000 ft
Scattered Clouds 18000 ft
Scattered Clouds 21000 ft
Heat Index 84 °F
Dew Point 68 °F
Humidity 66%
Rainfall 0.21 in
Snow Depth Not available.
UV 0.0 out of 12
Pollen 7.40 out of 12
Air Quality Not available.
Flu Activity Not available.
METAR KTBN 021858Z AUTO 27006KT 10SM FEW100 SCT150 SCT180 SCT210 24/20 A3003 RMK AO2 SLP163 T02360200

More Conditions Fewer Conditions

Pressure 30.01 in
Visibility 10.0 miles
Clouds Few 10000 ft
Scattered Clouds 15000 ft
Scattered Clouds 18000 ft
Scattered Clouds 21000 ft
Heat Index 84 °F
Dew Point 68 °F
Humidity 66%
Rainfall 0.21 in
Snow Depth Not available.
UV 0.0 out of 12
Pollen 7.40 out of 12
Air Quality Not available.
Flu Activity Not available.
METAR KTBN 021858Z AUTO 27006KT 10SM FEW100 SCT150 SCT180 SCT210 24/20 A3003 RMK AO2 SLP163 T02360200

More Conditions Fewer Conditions

10-Day Weather Forecast

Almanac

Astronomy

Sep. 02, 2014 Rise Set
Actual Time 6:39 AM CDT 7:36 PM CDT
Civil Twilight 6:12 AM CDT 8:03 PM CDT
Nautical Twilight 5:40 AM CDT 8:35 PM CDT
Astronomical Twilight 5:07 AM CDT 9:07 PM CDT
Moon 2:16 PM CDT No Moon Set
Length of Visible Light 13h 50m
Length of Day
12h 56m
Tomorrow will be 2m 20s shorter.
First Quarter, 54% of the Moon is Illuminated
Today
First Quarter
Sep 8
Full
Sep 15
Last Quarter
Sep 24
New
Oct 1
First Quarter

Today's Extremes

State Highs State Lows

Community

WunderPhotos

Upload Photos

1,749,751 photos uploaded!

WunderBlogs® & News

By Dr. Jeff Masters
Director of Meteorology, Weather Underground
By Kari Strenfel
Meteorologist, Weather Underground
By Christopher C. Burt
Weather Historian, Weather Underground
September 2, 2014
September 2, 2014
September 2, 2014

Nearby

Snow Depth

Station Depth Elevation
No new snow has been reported.

Earthquake Activity

City Distance Mag. Time & Date
No recent earthquake activity has been reported nearby.
Minimum magnitude displayed is 2.5.

Coastal Water Temperatures

Place Temperature
No Stations Reporting

Nearby Weather Stations